Seaspan Saigon — VRBT7 — position and weather

sailwx.info

Track history (hours):
 
Tides and Currents Weather Stations Pressure Air Temp Water Temp Dewpoint Dewpoint Depression Visibility Wind Speed Wind Dir Waves Ship Positions

Seaspan Saigon

Last reported at 2017-Aug-18 00:55 UTC. Time now 2017-Aug-18 07:13 UTC.
Position N 35°20' W 006°37'.

Length 260 m; draft 8 m.

Type: Ship (hazmat cat A). MMSI: 477106800.

Date/timePositionNaut miles runAvg speedWind from/ knotsBaromVisibWave heightAir tempDewpointWater temp
2017-Aug-18 00:55N 35°20' W 006°37'613.9
2017-Aug-18 00:30N 35°16' W 006°42'714.0
2017-Aug-17 23:59N 35°11' W 006°48'814.5
2017-Aug-17 23:25N 35°05' W 006°56'614.2
2017-Aug-17 22:59N 35°00' W 007°01'1014.7
2017-Aug-17 22:20N 34°53' W 007°09'614.8
2017-Aug-17 21:54N 34°49' W 007°15'614.8
2017-Aug-17 21:28N 34°45' W 007°20'814.6
2017-Aug-17 20:56N 34°39' W 007°27'614.8
2017-Aug-17 20:30N 34°35' W 007°33'814.5
2017-Aug-17 19:58N 34°29' W 007°39'714.7
2017-Aug-17 19:30N 34°25' W 007°45'914.9
2017-Aug-17 18:55N 34°19' W 007°53'614.6
2017-Aug-17 18:29N 34°14' W 007°58'2814.4
2017-Aug-17 16:32N 33°54' W 008°22'214.3
2017-Aug-17 16:24N 33°53' W 008°24'614.2
2017-Aug-17 16:00N 33°49' W 008°29'714.2
2017-Aug-17 15:30N 33°44' W 008°35'714.2
2017-Aug-17 15:00N 33°39' W 008°41'713.7
2017-Aug-17 14:30N 33°34' W 008°47'713.2
2017-Aug-17 14:00N 33°29' W 008°52'3613.9
2017-Aug-17 11:23N 33°03' W 009°23'614.0
2017-Aug-17 10:59N 32°60' W 009°28'814.1
2017-Aug-17 10:25N 32°54' W 009°35'914.0
2017-Aug-17 09:45N 32°48' W 009°43'814.0
2017-Aug-17 09:10N 32°42' W 009°50'314.0
2017-Aug-17 08:57N 32°40' W 009°52'613.9
2017-Aug-17 08:30N 32°35' W 009°57'1213.8
2017-Aug-17 07:39N 32°27' W 010°07'213.8
2017-Aug-17 07:30N 32°25' W 010°09'814.1
2017-Aug-17 06:55N 32°20' W 010°16'2114.9
2017-Aug-17 05:31N 32°05' W 010°34'315.2
2017-Aug-17 05:20N 32°03' W 010°36'615.4
2017-Aug-17 04:55N 31°59' W 010°41'615.2
2017-Aug-17 04:30N 31°54' W 010°45'815.0
2017-Aug-17 04:00N 31°47' W 010°50'814.8
2017-Aug-17 03:29N 31°41' W 010°55'714.5
2017-Aug-17 02:58N 31°35' W 010°60'713.9
2017-Aug-17 02:30N 31°29' W 011°04'813.2
2017-Aug-17 01:54N 31°23' W 011°09'513.1
2017-Aug-17 01:30N 31°18' W 011°13'712.9
2017-Aug-17 00:58N 31°12' W 011°17'613.2
2017-Aug-17 00:31N 31°07' W 011°21'713.3
2017-Aug-17 00:01N 31°02' W 011°26'713.7
2017-Aug-16 23:30N 30°56' W 011°30'713.8
2017-Aug-16 23:00N 30°50' W 011°34'714.0
2017-Aug-16 22:30N 30°45' W 011°39'714.0
2017-Aug-16 21:59N 30°38' W 011°43'713.9
2017-Aug-16 21:31N 30°33' W 011°48'914.3
2017-Aug-16 20:53N 30°26' W 011°54'614.2
2017-Aug-16 20:28N 30°21' W 011°57'714.3
2017-Aug-16 20:00N 30°15' W 012°01'914.3
2017-Aug-16 19:21N 30°07' W 012°08'514.3
2017-Aug-16 19:00N 30°03' W 012°11'814.4
2017-Aug-16 18:29N 29°57' W 012°15'714.7
2017-Aug-16 18:00N 29°51' W 012°20'714.5
2017-Aug-16 17:30N 29°45' W 012°25'714.4
2017-Aug-16 17:01N 29°39' W 012°29'714.4
2017-Aug-16 16:30N 29°33' W 012°34'714.4
2017-Aug-16 16:00N 29°27' W 012°38'714.3
2017-Aug-16 15:31N 29°21' W 012°43'714.5
2017-Aug-16 15:00N 29°15' W 012°47'714.6
2017-Aug-16 14:30N 29°09' W 012°52'714.6
2017-Aug-16 14:00N 29°03' W 012°57'714.6
2017-Aug-16 13:31N 28°57' W 013°01'714.6
2017-Aug-16 13:01N 28°51' W 013°06'714.5
2017-Aug-16 12:31N 28°45' W 013°10'714.3
2017-Aug-16 12:01N 28°39' W 013°15'713.9
2017-Aug-16 11:30N 28°33' W 013°19'814.2
2017-Aug-16 10:58N 28°27' W 013°24'714.3
2017-Aug-16 10:30N 28°21' W 013°28'714.3
2017-Aug-16 10:00N 28°15' W 013°33'713.9
2017-Aug-16 09:31N 28°09' W 013°37'714.0
2017-Aug-16 09:00N 28°03' W 013°41'714.2
2017-Aug-16 08:30N 27°58' W 013°46'714.0
2017-Aug-16 07:59N 27°52' W 013°50'714.1
2017-Aug-16 07:30N 27°46' W 013°55'714.5
2017-Aug-16 06:59N 27°40' W 013°59'714.6
2017-Aug-16 06:30N 27°34' W 014°04'814.1
2017-Aug-16 05:56N 27°27' W 014°09'913.9
2017-Aug-16 05:16N 27°19' W 014°15'414.1
2017-Aug-16 04:58N 27°16' W 014°17'714.3
2017-Aug-16 04:30N 27°10' W 014°21'1314.7
2017-Aug-16 03:36N 26°59' W 014°30'514.4
2017-Aug-16 03:15N 26°55' W 014°33'414.4
2017-Aug-16 03:00N 26°52' W 014°35'814.1
2017-Aug-16 02:26N 26°45' W 014°40'714.1
2017-Aug-16 01:57N 26°40' W 014°44'714.1
2017-Aug-16 01:29N 26°34' W 014°48'714.1
2017-Aug-16 01:01N 26°29' W 014°52'714.1
2017-Aug-16 00:30N 26°23' W 014°57'1114.2
2017-Aug-15 23:43N 26°13' W 015°04'1214.2
2017-Aug-15 22:53N 26°04' W 015°11'614.4
2017-Aug-15 22:26N 25°58' W 015°15'714.7
2017-Aug-15 21:56N 25°52' W 015°19'714.5
2017-Aug-15 21:27N 25°46' W 015°24'714.0
2017-Aug-15 20:55N 25°40' W 015°28'614.1
2017-Aug-15 20:30N 25°35' W 015°32'813.9
2017-Aug-15 19:57N 25°29' W 015°37'1814.6
2017-Aug-15 18:44N 25°14' W 015°47'714.7
2017-Aug-15 18:16N 25°08' W 015°52'514.6
2017-Aug-15 17:58N 25°05' W 015°54'1214.6
2017-Aug-15 17:08N 24°54' W 016°02'1014.7
2017-Aug-15 16:28N 24°46' W 016°07'714.7
2017-Aug-15 16:00N 24°40' W 016°10'6214.5
2017-Aug-15 11:43N 23°44' W 016°39'6714.1
2017-Aug-15 06:57N 22°43' W 017°11'  
2017-Aug-09 18:59N 05°01' W 000°53'714.0
2017-Aug-09 18:31N 05°04' W 000°47'714.1
2017-Aug-09 18:01N 05°08' W 000°41'714.1
2017-Aug-09 17:31N 05°11' W 000°35'714.2
2017-Aug-09 17:01N 05°15' W 000°29'714.1
2017-Aug-09 16:31N 05°18' W 000°22'714.3
2017-Aug-09 16:01N 05°21' W 000°16'714.3
2017-Aug-09 15:31N 05°25' W 000°10'714.5
2017-Aug-09 15:01N 05°28' W 000°04'714.4
2017-Aug-09 14:31N 05°32' E 000°02'611.2
2017-Aug-09 14:00N 05°38' E 000°01'1 1.6
2017-Aug-09 13:30N 05°37' E 000°00'0 0.0
2017-Aug-09 13:00N 05°37' E 000°00'0 0.0
2017-Aug-09 12:30N 05°37' E 000°00'0 0.0
2017-Aug-09 12:00N 05°37' E 000°00'0 0.0
2017-Aug-09 11:30N 05°37' E 000°00'0 0.0
2017-Aug-09 11:00N 05°37' E 000°00'0 0.0
2017-Aug-09 10:30N 05°37' E 000°00'0 0.0
2017-Aug-09 10:00N 05°37' E 000°00'0 0.0
2017-Aug-09 09:30N 05°37' E 000°00'0 0.0
2017-Aug-09 09:00N 05°37' E 000°00'0 0.0
2017-Aug-09 08:30N 05°37' E 000°00'0 0.0
2017-Aug-09 08:00N 05°37' E 000°00'0 0.0
2017-Aug-09 07:30N 05°37' E 000°00'0 0.0
2017-Aug-09 07:00N 05°37' E 000°00'0 0.0
2017-Aug-09 06:30N 05°37' E 000°00'0 0.0
2017-Aug-09 06:00N 05°37' E 000°00'0 0.0
2017-Aug-09 05:30N 05°37' E 000°00'0 0.0
2017-Aug-09 05:00N 05°37' E 000°00'0 0.0
2017-Aug-09 04:30N 05°37' E 000°00'0 0.0
2017-Aug-09 04:00N 05°37' E 000°00'0 0.0
2017-Aug-09 03:30N 05°37' E 000°00'0 0.0
2017-Aug-09 03:00N 05°37' E 000°00'0 0.0
2017-Aug-09 02:30N 05°37' E 000°00'0 0.0
2017-Aug-09 02:00N 05°37' E 000°00'0 0.0
2017-Aug-09 01:30N 05°37' E 000°00'0 0.0
2017-Aug-09 01:00N 05°37' E 000°00'0 0.0
2017-Aug-09 00:30N 05°37' E 000°00'0 0.0
2017-Aug-09 00:00N 05°37' E 000°00'0 0.0
2017-Aug-08 23:30N 05°37' E 000°00'0 0.0
2017-Aug-08 23:00N 05°37' E 000°01'0 0.0
2017-Aug-08 22:30N 05°37' E 000°00'0 0.0
2017-Aug-08 22:00N 05°37' E 000°00'0 0.0
2017-Aug-08 21:30N 05°37' E 000°00'0 0.0
2017-Aug-08 21:00N 05°37' E 000°00'0 0.0
2017-Aug-08 20:30N 05°37' E 000°00'0 0.0
2017-Aug-08 20:00N 05°37' E 000°00'0 0.0
2017-Aug-08 19:30N 05°37' E 000°00'0 0.0
2017-Aug-08 19:00N 05°37' E 000°00'0 0.7
2017-Aug-08 18:30N 05°38' E 000°01'2 4.0
2017-Aug-08 18:00N 05°37' E 000°03'4 8.4
2017-Aug-08 17:30N 05°35' E 000°07'612.9
2017-Aug-08 17:01N 05°34' E 000°13'1020.0
2017-Aug-08 16:31N 05°35' E 000°23'  
Track history (hours):
 
Tides and Currents Weather Stations Pressure Air Temp Water Temp Dewpoint Dewpoint Depression Visibility Wind Speed Wind Dir Waves Ship Positions

Seaspan Saigon

Last reported at 2017-Aug-18 00:55 UTC. Time now 2017-Aug-18 07:13 UTC.
Position N 35°20' W 006°37'.

Length 260 m; draft 8 m.

Type: Ship (hazmat cat A). MMSI: 477106800.

Date/timePositionNaut miles runAvg speedWind from/ knotsBaromVisibWave heightAir tempDewpointWater temp
2017-Aug-18 00:55N 35°20' W 006°37'613.9
2017-Aug-18 00:30N 35°16' W 006°42'714.0
2017-Aug-17 23:59N 35°11' W 006°48'814.5
2017-Aug-17 23:25N 35°05' W 006°56'614.2
2017-Aug-17 22:59N 35°00' W 007°01'1014.7
2017-Aug-17 22:20N 34°53' W 007°09'614.8
2017-Aug-17 21:54N 34°49' W 007°15'614.8
2017-Aug-17 21:28N 34°45' W 007°20'814.6
2017-Aug-17 20:56N 34°39' W 007°27'614.8
2017-Aug-17 20:30N 34°35' W 007°33'814.5
2017-Aug-17 19:58N 34°29' W 007°39'714.7
2017-Aug-17 19:30N 34°25' W 007°45'914.9
2017-Aug-17 18:55N 34°19' W 007°53'614.6
2017-Aug-17 18:29N 34°14' W 007°58'2814.4
2017-Aug-17 16:32N 33°54' W 008°22'214.3
2017-Aug-17 16:24N 33°53' W 008°24'614.2
2017-Aug-17 16:00N 33°49' W 008°29'714.2
2017-Aug-17 15:30N 33°44' W 008°35'714.2
2017-Aug-17 15:00N 33°39' W 008°41'713.7
2017-Aug-17 14:30N 33°34' W 008°47'713.2
2017-Aug-17 14:00N 33°29' W 008°52'3613.9
2017-Aug-17 11:23N 33°03' W 009°23'614.0
2017-Aug-17 10:59N 32°60' W 009°28'814.1
2017-Aug-17 10:25N 32°54' W 009°35'914.0
2017-Aug-17 09:45N 32°48' W 009°43'814.0
2017-Aug-17 09:10N 32°42' W 009°50'314.0
2017-Aug-17 08:57N 32°40' W 009°52'613.9
2017-Aug-17 08:30N 32°35' W 009°57'1213.8
2017-Aug-17 07:39N 32°27' W 010°07'213.8
2017-Aug-17 07:30N 32°25' W 010°09'814.1
2017-Aug-17 06:55N 32°20' W 010°16'2114.9
2017-Aug-17 05:31N 32°05' W 010°34'315.2
2017-Aug-17 05:20N 32°03' W 010°36'615.4
2017-Aug-17 04:55N 31°59' W 010°41'615.2
2017-Aug-17 04:30N 31°54' W 010°45'815.0
2017-Aug-17 04:00N 31°47' W 010°50'814.8
2017-Aug-17 03:29N 31°41' W 010°55'714.5
2017-Aug-17 02:58N 31°35' W 010°60'713.9
2017-Aug-17 02:30N 31°29' W 011°04'813.2
2017-Aug-17 01:54N 31°23' W 011°09'513.1
2017-Aug-17 01:30N 31°18' W 011°13'712.9
2017-Aug-17 00:58N 31°12' W 011°17'613.2
2017-Aug-17 00:31N 31°07' W 011°21'713.3
2017-Aug-17 00:01N 31°02' W 011°26'713.7
2017-Aug-16 23:30N 30°56' W 011°30'713.8
2017-Aug-16 23:00N 30°50' W 011°34'714.0
2017-Aug-16 22:30N 30°45' W 011°39'714.0
2017-Aug-16 21:59N 30°38' W 011°43'713.9
2017-Aug-16 21:31N 30°33' W 011°48'914.3
2017-Aug-16 20:53N 30°26' W 011°54'614.2
2017-Aug-16 20:28N 30°21' W 011°57'714.3
2017-Aug-16 20:00N 30°15' W 012°01'914.3
2017-Aug-16 19:21N 30°07' W 012°08'514.3
2017-Aug-16 19:00N 30°03' W 012°11'814.4
2017-Aug-16 18:29N 29°57' W 012°15'714.7
2017-Aug-16 18:00N 29°51' W 012°20'714.5
2017-Aug-16 17:30N 29°45' W 012°25'714.4
2017-Aug-16 17:01N 29°39' W 012°29'714.4
2017-Aug-16 16:30N 29°33' W 012°34'714.4
2017-Aug-16 16:00N 29°27' W 012°38'714.3
2017-Aug-16 15:31N 29°21' W 012°43'714.5
2017-Aug-16 15:00N 29°15' W 012°47'714.6
2017-Aug-16 14:30N 29°09' W 012°52'714.6
2017-Aug-16 14:00N 29°03' W 012°57'714.6
2017-Aug-16 13:31N 28°57' W 013°01'714.6
2017-Aug-16 13:01N 28°51' W 013°06'714.5
2017-Aug-16 12:31N 28°45' W 013°10'714.3
2017-Aug-16 12:01N 28°39' W 013°15'713.9
2017-Aug-16 11:30N 28°33' W 013°19'814.2
2017-Aug-16 10:58N 28°27' W 013°24'714.3
2017-Aug-16 10:30N 28°21' W 013°28'714.3
2017-Aug-16 10:00N 28°15' W 013°33'713.9
2017-Aug-16 09:31N 28°09' W 013°37'714.0
2017-Aug-16 09:00N 28°03' W 013°41'714.2
2017-Aug-16 08:30N 27°58' W 013°46'714.0
2017-Aug-16 07:59N 27°52' W 013°50'714.1
2017-Aug-16 07:30N 27°46' W 013°55'714.5
2017-Aug-16 06:59N 27°40' W 013°59'714.6
2017-Aug-16 06:30N 27°34' W 014°04'814.1
2017-Aug-16 05:56N 27°27' W 014°09'913.9
2017-Aug-16 05:16N 27°19' W 014°15'414.1
2017-Aug-16 04:58N 27°16' W 014°17'714.3
2017-Aug-16 04:30N 27°10' W 014°21'1314.7
2017-Aug-16 03:36N 26°59' W 014°30'514.4
2017-Aug-16 03:15N 26°55' W 014°33'414.4
2017-Aug-16 03:00N 26°52' W 014°35'814.1
2017-Aug-16 02:26N 26°45' W 014°40'714.1
2017-Aug-16 01:57N 26°40' W 014°44'714.1
2017-Aug-16 01:29N 26°34' W 014°48'714.1
2017-Aug-16 01:01N 26°29' W 014°52'714.1
2017-Aug-16 00:30N 26°23' W 014°57'1114.2
2017-Aug-15 23:43N 26°13' W 015°04'1214.2
2017-Aug-15 22:53N 26°04' W 015°11'614.4
2017-Aug-15 22:26N 25°58' W 015°15'714.7
2017-Aug-15 21:56N 25°52' W 015°19'714.5
2017-Aug-15 21:27N 25°46' W 015°24'714.0
2017-Aug-15 20:55N 25°40' W 015°28'614.1
2017-Aug-15 20:30N 25°35' W 015°32'813.9
2017-Aug-15 19:57N 25°29' W 015°37'1814.6
2017-Aug-15 18:44N 25°14' W 015°47'714.7
2017-Aug-15 18:16N 25°08' W 015°52'514.6
2017-Aug-15 17:58N 25°05' W 015°54'1214.6
2017-Aug-15 17:08N 24°54' W 016°02'1014.7
2017-Aug-15 16:28N 24°46' W 016°07'714.7
2017-Aug-15 16:00N 24°40' W 016°10'6214.5
2017-Aug-15 11:43N 23°44' W 016°39'6714.1
2017-Aug-15 06:57N 22°43' W 017°11'  
2017-Aug-09 18:59N 05°01' W 000°53'714.0
2017-Aug-09 18:31N 05°04' W 000°47'714.1
2017-Aug-09 18:01N 05°08' W 000°41'714.1
2017-Aug-09 17:31N 05°11' W 000°35'714.2
2017-Aug-09 17:01N 05°15' W 000°29'714.1
2017-Aug-09 16:31N 05°18' W 000°22'714.3
2017-Aug-09 16:01N 05°21' W 000°16'714.3
2017-Aug-09 15:31N 05°25' W 000°10'714.5
2017-Aug-09 15:01N 05°28' W 000°04'714.4
2017-Aug-09 14:31N 05°32' E 000°02'611.2
2017-Aug-09 14:00N 05°38' E 000°01'1 1.6
2017-Aug-09 13:30N 05°37' E 000°00'0 0.0
2017-Aug-09 13:00N 05°37' E 000°00'0 0.0
2017-Aug-09 12:30N 05°37' E 000°00'0 0.0
2017-Aug-09 12:00N 05°37' E 000°00'0 0.0
2017-Aug-09 11:30N 05°37' E 000°00'0 0.0
2017-Aug-09 11:00N 05°37' E 000°00'0 0.0
2017-Aug-09 10:30N 05°37' E 000°00'0 0.0
2017-Aug-09 10:00N 05°37' E 000°00'0 0.0
2017-Aug-09 09:30N 05°37' E 000°00'0 0.0
2017-Aug-09 09:00N 05°37' E 000°00'0 0.0
2017-Aug-09 08:30N 05°37' E 000°00'0 0.0
2017-Aug-09 08:00N 05°37' E 000°00'0 0.0
2017-Aug-09 07:30N 05°37' E 000°00'0 0.0
2017-Aug-09 07:00N 05°37' E 000°00'0 0.0
2017-Aug-09 06:30N 05°37' E 000°00'0 0.0
2017-Aug-09 06:00N 05°37' E 000°00'0 0.0
2017-Aug-09 05:30N 05°37' E 000°00'0 0.0
2017-Aug-09 05:00N 05°37' E 000°00'0 0.0
2017-Aug-09 04:30N 05°37' E 000°00'0 0.0
2017-Aug-09 04:00N 05°37' E 000°00'0 0.0
2017-Aug-09 03:30N 05°37' E 000°00'0 0.0
2017-Aug-09 03:00N 05°37' E 000°00'0 0.0
2017-Aug-09 02:30N 05°37' E 000°00'0 0.0
2017-Aug-09 02:00N 05°37' E 000°00'0 0.0
2017-Aug-09 01:30N 05°37' E 000°00'0 0.0
2017-Aug-09 01:00N 05°37' E 000°00'0 0.0
2017-Aug-09 00:30N 05°37' E 000°00'0 0.0
2017-Aug-09 00:00N 05°37' E 000°00'0 0.0
2017-Aug-08 23:30N 05°37' E 000°00'0 0.0
2017-Aug-08 23:00N 05°37' E 000°01'0 0.0
2017-Aug-08 22:30N 05°37' E 000°00'0 0.0
2017-Aug-08 22:00N 05°37' E 000°00'0 0.0
2017-Aug-08 21:30N 05°37' E 000°00'0 0.0
2017-Aug-08 21:00N 05°37' E 000°00'0 0.0
2017-Aug-08 20:30N 05°37' E 000°00'0 0.0
2017-Aug-08 20:00N 05°37' E 000°00'0 0.0
2017-Aug-08 19:30N 05°37' E 000°00'0 0.0
2017-Aug-08 19:00N 05°37' E 000°00'0 0.7
2017-Aug-08 18:30N 05°38' E 000°01'2 4.0
2017-Aug-08 18:00N 05°37' E 000°03'4 8.4
2017-Aug-08 17:30N 05°35' E 000°07'612.9
2017-Aug-08 17:01N 05°34' E 000°13'1020.0
2017-Aug-08 16:31N 05°35' E 000°23'  

Dump ship's entire track history